sensor_id;sensor_type;location;lat;lon;timestamp;temperature;humidity
51719;DHT22;37795;53.236;5.704;2023-10-09T00:01:17;15.10;84.90
51719;DHT22;37795;53.236;5.704;2023-10-09T00:03:44;15.10;84.90
51719;DHT22;37795;53.236;5.704;2023-10-09T00:06:10;15.10;85.00
51719;DHT22;37795;53.236;5.704;2023-10-09T00:08:39;15.00;85.20
51719;DHT22;37795;53.236;5.704;2023-10-09T00:11:10;15.00;85.70
51719;DHT22;37795;53.236;5.704;2023-10-09T00:13:41;15.00;85.70
51719;DHT22;37795;53.236;5.704;2023-10-09T00:16:16;15.10;85.70
51719;DHT22;37795;53.236;5.704;2023-10-09T00:18:42;15.00;85.90
51719;DHT22;37795;53.236;5.704;2023-10-09T00:21:16;15.00;85.80
51719;DHT22;37795;53.236;5.704;2023-10-09T00:23:46;15.00;85.50
51719;DHT22;37795;53.236;5.704;2023-10-09T00:26:21;15.00;85.60
51719;DHT22;37795;53.236;5.704;2023-10-09T00:28:47;15.00;85.70
51719;DHT22;37795;53.236;5.704;2023-10-09T00:31:16;15.00;85.60
51719;DHT22;37795;53.236;5.704;2023-10-09T00:33:45;14.90;86.10
51719;DHT22;37795;53.236;5.704;2023-10-09T00:36:11;14.90;86.10
51719;DHT22;37795;53.236;5.704;2023-10-09T00:38:43;14.90;86.30
51719;DHT22;37795;53.236;5.704;2023-10-09T00:41:16;14.90;86.40
51719;DHT22;37795;53.236;5.704;2023-10-09T00:43:46;14.90;86.50
51719;DHT22;37795;53.236;5.704;2023-10-09T00:46:17;14.90;86.40
51719;DHT22;37795;53.236;5.704;2023-10-09T00:48:56;14.90;86.60
51719;DHT22;37795;53.236;5.704;2023-10-09T00:51:23;14.90;86.70
51719;DHT22;37795;53.236;5.704;2023-10-09T00:53:52;14.90;86.60
51719;DHT22;37795;53.236;5.704;2023-10-09T00:56:19;14.90;86.80
51719;DHT22;37795;53.236;5.704;2023-10-09T00:59:03;14.80;87.10
51719;DHT22;37795;53.236;5.704;2023-10-09T01:01:35;14.80;87.00
51719;DHT22;37795;53.236;5.704;2023-10-09T01:04:05;14.90;87.00
51719;DHT22;37795;53.236;5.704;2023-10-09T01:06:44;14.90;87.10
51719;DHT22;37795;53.236;5.704;2023-10-09T01:09:14;14.90;87.00
51719;DHT22;37795;53.236;5.704;2023-10-09T01:11:42;15.00;87.00
51719;DHT22;37795;53.236;5.704;2023-10-09T01:14:25;14.90;86.80
51719;DHT22;37795;53.236;5.704;2023-10-09T01:16:51;14.90;87.00
51719;DHT22;37795;53.236;5.704;2023-10-09T01:19:20;14.90;87.00
51719;DHT22;37795;53.236;5.704;2023-10-09T01:21:52;14.80;87.10
51719;DHT22;37795;53.236;5.704;2023-10-09T01:24:18;14.80;87.20
51719;DHT22;37795;53.236;5.704;2023-10-09T01:26:48;14.80;87.20
51719;DHT22;37795;53.236;5.704;2023-10-09T01:29:20;14.80;87.40
51719;DHT22;37795;53.236;5.704;2023-10-09T01:31:51;14.80;87.40
51719;DHT22;37795;53.236;5.704;2023-10-09T01:34:18;14.80;87.50
51719;DHT22;37795;53.236;5.704;2023-10-09T01:36:44;14.70;87.40
51719;DHT22;37795;53.236;5.704;2023-10-09T01:39:14;14.80;87.60
51719;DHT22;37795;53.236;5.704;2023-10-09T01:41:50;14.70;87.80
51719;DHT22;37795;53.236;5.704;2023-10-09T01:44:24;14.80;87.90
51719;DHT22;37795;53.236;5.704;2023-10-09T01:46:52;14.80;87.70
51719;DHT22;37795;53.236;5.704;2023-10-09T01:49:20;14.70;88.10
51719;DHT22;37795;53.236;5.704;2023-10-09T01:51:58;14.80;88.10
51719;DHT22;37795;53.236;5.704;2023-10-09T01:54:27;14.70;88.20
51719;DHT22;37795;53.236;5.704;2023-10-09T01:57:07;14.70;88.30
51719;DHT22;37795;53.236;5.704;2023-10-09T01:59:43;14.70;88.20
51719;DHT22;37795;53.236;5.704;2023-10-09T02:02:21;14.70;88.40
51719;DHT22;37795;53.236;5.704;2023-10-09T02:05:06;14.80;88.20
51719;DHT22;37795;53.236;5.704;2023-10-09T02:07:50;14.70;88.30
51719;DHT22;37795;53.236;5.704;2023-10-09T02:10:23;14.80;88.30
51719;DHT22;37795;53.236;5.704;2023-10-09T02:13:00;14.80;88.30
51719;DHT22;37795;53.236;5.704;2023-10-09T02:15:38;14.80;88.20
51719;DHT22;37795;53.236;5.704;2023-10-09T02:18:13;14.80;88.10
51719;DHT22;37795;53.236;5.704;2023-10-09T02:23:26;14.90;88.10
51719;DHT22;37795;53.236;5.704;2023-10-09T02:26:02;15.00;88.20
51719;DHT22;37795;53.236;5.704;2023-10-09T02:28:30;15.00;88.10
51719;DHT22;37795;53.236;5.704;2023-10-09T02:30:58;15.20;88.40
51719;DHT22;37795;53.236;5.704;2023-10-09T02:33:27;15.20;88.40
51719;DHT22;37795;53.236;5.704;2023-10-09T02:35:58;15.30;88.50
51719;DHT22;37795;53.236;5.704;2023-10-09T02:38:31;15.40;88.40
51719;DHT22;37795;53.236;5.704;2023-10-09T02:40:59;15.40;88.40
51719;DHT22;37795;53.236;5.704;2023-10-09T02:43:35;15.50;88.50
51719;DHT22;37795;53.236;5.704;2023-10-09T02:46:14;15.60;88.30
51719;DHT22;37795;53.236;5.704;2023-10-09T02:48:46;15.70;88.00
51719;DHT22;37795;53.236;5.704;2023-10-09T02:51:19;15.70;87.60
51719;DHT22;37795;53.236;5.704;2023-10-09T02:53:54;15.80;87.30
51719;DHT22;37795;53.236;5.704;2023-10-09T02:56:21;15.90;86.90
51719;DHT22;37795;53.236;5.704;2023-10-09T02:58:53;15.90;86.50
51719;DHT22;37795;53.236;5.704;2023-10-09T03:01:19;16.00;86.10
51719;DHT22;37795;53.236;5.704;2023-10-09T03:03:45;16.10;85.60
51719;DHT22;37795;53.236;5.704;2023-10-09T03:06:13;16.20;85.20
51719;DHT22;37795;53.236;5.704;2023-10-09T03:08:39;16.20;84.80
51719;DHT22;37795;53.236;5.704;2023-10-09T03:11:08;16.30;84.60
51719;DHT22;37795;53.236;5.704;2023-10-09T03:13:44;16.30;84.40
51719;DHT22;37795;53.236;5.704;2023-10-09T03:16:11;16.30;84.20
51719;DHT22;37795;53.236;5.704;2023-10-09T03:18:45;16.30;84.20
51719;DHT22;37795;53.236;5.704;2023-10-09T03:21:12;16.30;84.20
51719;DHT22;37795;53.236;5.704;2023-10-09T03:23:45;16.40;84.00
51719;DHT22;37795;53.236;5.704;2023-10-09T03:26:17;16.40;83.90
51719;DHT22;37795;53.236;5.704;2023-10-09T03:28:48;16.40;83.90
51719;DHT22;37795;53.236;5.704;2023-10-09T03:31:14;16.50;83.90
51719;DHT22;37795;53.236;5.704;2023-10-09T03:33:40;16.50;83.80
51719;DHT22;37795;53.236;5.704;2023-10-09T03:36:07;16.50;83.70
51719;DHT22;37795;53.236;5.704;2023-10-09T03:38:36;16.50;83.70
51719;DHT22;37795;53.236;5.704;2023-10-09T03:41:03;16.50;83.60
51719;DHT22;37795;53.236;5.704;2023-10-09T03:43:33;16.50;83.60
51719;DHT22;37795;53.236;5.704;2023-10-09T03:46:03;16.50;83.60
51719;DHT22;37795;53.236;5.704;2023-10-09T03:48:31;16.50;83.40
51719;DHT22;37795;53.236;5.704;2023-10-09T03:51:02;16.60;83.00
51719;DHT22;37795;53.236;5.704;2023-10-09T03:53:39;16.60;83.10
51719;DHT22;37795;53.236;5.704;2023-10-09T03:56:08;16.60;83.00
51719;DHT22;37795;53.236;5.704;2023-10-09T03:58:41;16.60;82.70
51719;DHT22;37795;53.236;5.704;2023-10-09T04:01:16;16.60;82.50
51719;DHT22;37795;53.236;5.704;2023-10-09T04:03:47;16.70;82.70
51719;DHT22;37795;53.236;5.704;2023-10-09T04:06:13;16.70;82.90
51719;DHT22;37795;53.236;5.704;2023-10-09T04:08:40;16.70;82.70
51719;DHT22;37795;53.236;5.704;2023-10-09T04:11:15;16.70;82.80
51719;DHT22;37795;53.236;5.704;2023-10-09T04:13:48;16.60;83.00
51719;DHT22;37795;53.236;5.704;2023-10-09T04:16:21;16.60;83.10
51719;DHT22;37795;53.236;5.704;2023-10-09T04:18:57;16.60;83.40
51719;DHT22;37795;53.236;5.704;2023-10-09T04:21:23;16.50;83.90
51719;DHT22;37795;53.236;5.704;2023-10-09T04:24:08;16.50;84.00
51719;DHT22;37795;53.236;5.704;2023-10-09T04:26:40;16.50;84.10
51719;DHT22;37795;53.236;5.704;2023-10-09T04:29:16;16.50;84.30
51719;DHT22;37795;53.236;5.704;2023-10-09T04:32:04;16.50;84.40
51719;DHT22;37795;53.236;5.704;2023-10-09T04:34:34;16.40;84.40
51719;DHT22;37795;53.236;5.704;2023-10-09T04:37:14;16.40;84.40
51719;DHT22;37795;53.236;5.704;2023-10-09T04:39:43;16.40;84.70
51719;DHT22;37795;53.236;5.704;2023-10-09T04:42:36;16.40;84.80
51719;DHT22;37795;53.236;5.704;2023-10-09T04:45:04;16.40;84.90
51719;DHT22;37795;53.236;5.704;2023-10-09T04:47:34;16.40;84.90
51719;DHT22;37795;53.236;5.704;2023-10-09T04:50:08;16.40;84.70
51719;DHT22;37795;53.236;5.704;2023-10-09T04:52:40;16.40;84.80
51719;DHT22;37795;53.236;5.704;2023-10-09T04:55:07;16.40;84.70
51719;DHT22;37795;53.236;5.704;2023-10-09T04:57:36;16.40;84.70
51719;DHT22;37795;53.236;5.704;2023-10-09T05:03:00;16.40;85.00
51719;DHT22;37795;53.236;5.704;2023-10-09T05:05:46;16.40;85.00
51719;DHT22;37795;53.236;5.704;2023-10-09T05:08:17;16.40;85.10
51719;DHT22;37795;53.236;5.704;2023-10-09T05:11:01;16.30;84.90
51719;DHT22;37795;53.236;5.704;2023-10-09T05:13:32;16.40;84.60
51719;DHT22;37795;53.236;5.704;2023-10-09T05:16:14;16.40;84.50
51719;DHT22;37795;53.236;5.704;2023-10-09T05:18:53;16.40;84.20
51719;DHT22;37795;53.236;5.704;2023-10-09T05:21:23;16.40;84.40
51719;DHT22;37795;53.236;5.704;2023-10-09T05:23:59;16.40;84.40
51719;DHT22;37795;53.236;5.704;2023-10-09T05:26:44;16.40;84.30
51719;DHT22;37795;53.236;5.704;2023-10-09T05:29:10;16.30;84.40
51719;DHT22;37795;53.236;5.704;2023-10-09T05:32:00;16.40;84.40
51719;DHT22;37795;53.236;5.704;2023-10-09T05:34:32;16.30;84.60
51719;DHT22;37795;53.236;5.704;2023-10-09T05:37:17;16.30;84.60
51719;DHT22;37795;53.236;5.704;2023-10-09T05:39:46;16.30;84.70
51719;DHT22;37795;53.236;5.704;2023-10-09T05:42:34;16.30;84.60
51719;DHT22;37795;53.236;5.704;2023-10-09T05:45:04;16.40;84.50
51719;DHT22;37795;53.236;5.704;2023-10-09T05:47:51;16.40;84.60
51719;DHT22;37795;53.236;5.704;2023-10-09T05:50:27;16.40;84.80
51719;DHT22;37795;53.236;5.704;2023-10-09T05:52:55;16.40;84.80
51719;DHT22;37795;53.236;5.704;2023-10-09T05:55:22;16.40;84.60
51719;DHT22;37795;53.236;5.704;2023-10-09T05:57:55;16.40;84.40
51719;DHT22;37795;53.236;5.704;2023-10-09T06:00:25;16.40;84.50
51719;DHT22;37795;53.236;5.704;2023-10-09T06:03:09;16.40;84.50
51719;DHT22;37795;53.236;5.704;2023-10-09T06:05:48;16.40;84.50
51719;DHT22;37795;53.236;5.704;2023-10-09T06:08:28;16.40;84.60
51719;DHT22;37795;53.236;5.704;2023-10-09T06:11:14;16.30;84.60
51719;DHT22;37795;53.236;5.704;2023-10-09T06:14:00;16.30;84.60
51719;DHT22;37795;53.236;5.704;2023-10-09T06:16:39;16.30;84.60
51719;DHT22;37795;53.236;5.704;2023-10-09T06:19:13;16.30;84.60
51719;DHT22;37795;53.236;5.704;2023-10-09T06:21:59;16.30;84.40
51719;DHT22;37795;53.236;5.704;2023-10-09T06:24:38;16.30;84.60
51719;DHT22;37795;53.236;5.704;2023-10-09T06:27:04;16.30;84.70
51719;DHT22;37795;53.236;5.704;2023-10-09T06:29:30;16.30;84.80
51719;DHT22;37795;53.236;5.704;2023-10-09T06:32:06;16.20;85.10
51719;DHT22;37795;53.236;5.704;2023-10-09T06:34:50;16.20;85.10
51719;DHT22;37795;53.236;5.704;2023-10-09T06:37:19;16.30;85.20
51719;DHT22;37795;53.236;5.704;2023-10-09T06:39:55;16.20;85.50
51719;DHT22;37795;53.236;5.704;2023-10-09T06:42:23;16.20;85.60
51719;DHT22;37795;53.236;5.704;2023-10-09T06:45:09;16.10;85.80
51719;DHT22;37795;53.236;5.704;2023-10-09T06:53:46;16.40;86.10
51719;DHT22;37795;53.236;5.704;2023-10-09T06:56:22;16.00;86.90
51719;DHT22;37795;53.236;5.704;2023-10-09T06:58:57;16.00;86.80
51719;DHT22;37795;53.236;5.704;2023-10-09T07:01:27;16.00;86.80
51719;DHT22;37795;53.236;5.704;2023-10-09T07:03:53;16.00;86.70
51719;DHT22;37795;53.236;5.704;2023-10-09T07:06:20;16.00;86.90
51719;DHT22;37795;53.236;5.704;2023-10-09T07:08:55;16.00;86.70
51719;DHT22;37795;53.236;5.704;2023-10-09T07:11:41;16.00;86.80
51719;DHT22;37795;53.236;5.704;2023-10-09T07:14:11;16.00;86.80
51719;DHT22;37795;53.236;5.704;2023-10-09T07:19:30;16.10;86.90
51719;DHT22;37795;53.236;5.704;2023-10-09T07:22:05;16.10;86.90
51719;DHT22;37795;53.236;5.704;2023-10-09T07:24:41;16.10;87.00
51719;DHT22;37795;53.236;5.704;2023-10-09T07:27:17;16.10;86.80
51719;DHT22;37795;53.236;5.704;2023-10-09T07:30:04;16.10;86.80
51719;DHT22;37795;53.236;5.704;2023-10-09T07:32:49;16.10;86.90
51719;DHT22;37795;53.236;5.704;2023-10-09T07:35:18;16.10;86.70
51719;DHT22;37795;53.236;5.704;2023-10-09T07:38:03;16.20;86.70
51719;DHT22;37795;53.236;5.704;2023-10-09T07:40:32;16.20;86.70
51719;DHT22;37795;53.236;5.704;2023-10-09T07:43:18;16.20;86.80
51719;DHT22;37795;53.236;5.704;2023-10-09T07:45:43;16.20;86.90
51719;DHT22;37795;53.236;5.704;2023-10-09T07:48:25;16.20;86.80
51719;DHT22;37795;53.236;5.704;2023-10-09T07:50:51;16.20;86.80
51719;DHT22;37795;53.236;5.704;2023-10-09T07:53:23;16.20;86.90
51719;DHT22;37795;53.236;5.704;2023-10-09T07:55:55;16.20;86.80
51719;DHT22;37795;53.236;5.704;2023-10-09T07:58:28;16.20;86.90
51719;DHT22;37795;53.236;5.704;2023-10-09T08:00:57;16.20;87.10
51719;DHT22;37795;53.236;5.704;2023-10-09T08:03:34;16.20;87.10
51719;DHT22;37795;53.236;5.704;2023-10-09T08:06:01;16.20;87.30
51719;DHT22;37795;53.236;5.704;2023-10-09T08:08:53;16.20;87.40
51719;DHT22;37795;53.236;5.704;2023-10-09T08:11:46;16.20;87.60
51719;DHT22;37795;53.236;5.704;2023-10-09T08:14:12;16.30;87.50
51719;DHT22;37795;53.236;5.704;2023-10-09T08:16:50;16.30;87.70
51719;DHT22;37795;53.236;5.704;2023-10-09T08:19:17;16.30;87.80
51719;DHT22;37795;53.236;5.704;2023-10-09T08:22:05;16.30;87.80
51719;DHT22;37795;53.236;5.704;2023-10-09T08:25:03;16.30;88.00
51719;DHT22;37795;53.236;5.704;2023-10-09T08:27:30;16.30;88.20
51719;DHT22;37795;53.236;5.704;2023-10-09T08:30:00;16.30;88.30
51719;DHT22;37795;53.236;5.704;2023-10-09T08:32:54;16.40;88.40
51719;DHT22;37795;53.236;5.704;2023-10-09T08:35:36;16.30;88.20
51719;DHT22;37795;53.236;5.704;2023-10-09T08:38:15;16.30;88.40
51719;DHT22;37795;53.236;5.704;2023-10-09T08:40:49;16.30;88.30
51719;DHT22;37795;53.236;5.704;2023-10-09T08:43:20;16.30;88.30
51719;DHT22;37795;53.236;5.704;2023-10-09T08:45:54;16.40;88.30
51719;DHT22;37795;53.236;5.704;2023-10-09T08:48:27;16.40;88.50
51719;DHT22;37795;53.236;5.704;2023-10-09T08:50:55;16.40;88.50
51719;DHT22;37795;53.236;5.704;2023-10-09T08:53:22;16.40;88.40
51719;DHT22;37795;53.236;5.704;2023-10-09T08:55:50;16.40;88.60
51719;DHT22;37795;53.236;5.704;2023-10-09T08:58:17;16.40;88.40
51719;DHT22;37795;53.236;5.704;2023-10-09T09:00:51;16.50;88.50
51719;DHT22;37795;53.236;5.704;2023-10-09T09:03:18;16.50;88.50
51719;DHT22;37795;53.236;5.704;2023-10-09T09:05:48;16.50;88.50
51719;DHT22;37795;53.236;5.704;2023-10-09T09:08:25;16.50;88.40
51719;DHT22;37795;53.236;5.704;2023-10-09T09:11:11;16.50;88.20
51719;DHT22;37795;53.236;5.704;2023-10-09T09:13:44;16.60;88.30
51719;DHT22;37795;53.236;5.704;2023-10-09T09:16:20;16.60;88.10
51719;DHT22;37795;53.236;5.704;2023-10-09T09:18:50;16.50;88.20
51719;DHT22;37795;53.236;5.704;2023-10-09T09:21:18;16.60;88.00
51719;DHT22;37795;53.236;5.704;2023-10-09T09:24:00;16.60;88.10
51719;DHT22;37795;53.236;5.704;2023-10-09T09:26:38;16.70;88.30
51719;DHT22;37795;53.236;5.704;2023-10-09T09:29:11;16.70;88.20
51719;DHT22;37795;53.236;5.704;2023-10-09T09:31:37;16.60;88.10
51719;DHT22;37795;53.236;5.704;2023-10-09T09:34:07;16.70;87.90
51719;DHT22;37795;53.236;5.704;2023-10-09T09:36:56;16.70;87.80
51719;DHT22;37795;53.236;5.704;2023-10-09T09:39:26;16.70;87.90
51719;DHT22;37795;53.236;5.704;2023-10-09T09:41:59;16.60;87.60
51719;DHT22;37795;53.236;5.704;2023-10-09T09:44:39;16.70;87.70
51719;DHT22;37795;53.236;5.704;2023-10-09T09:47:15;16.60;87.30
51719;DHT22;37795;53.236;5.704;2023-10-09T09:49:56;16.70;87.10
51719;DHT22;37795;53.236;5.704;2023-10-09T09:52:28;16.70;87.40
51719;DHT22;37795;53.236;5.704;2023-10-09T09:54:53;16.80;87.20
51719;DHT22;37795;53.236;5.704;2023-10-09T09:57:22;16.70;87.20
51719;DHT22;37795;53.236;5.704;2023-10-09T09:59:52;16.80;86.90
51719;DHT22;37795;53.236;5.704;2023-10-09T10:02:32;16.80;86.80
51719;DHT22;37795;53.236;5.704;2023-10-09T10:05:06;16.80;86.90
51719;DHT22;37795;53.236;5.704;2023-10-09T10:07:34;16.80;87.00
51719;DHT22;37795;53.236;5.704;2023-10-09T10:10:36;16.80;86.90
51719;DHT22;37795;53.236;5.704;2023-10-09T10:21:25;17.00;86.80
51719;DHT22;37795;53.236;5.704;2023-10-09T10:23:57;17.10;86.90
51719;DHT22;37795;53.236;5.704;2023-10-09T10:26:32;17.10;86.10
51719;DHT22;37795;53.236;5.704;2023-10-09T10:29:16;17.30;86.30
51719;DHT22;37795;53.236;5.704;2023-10-09T10:31:58;17.20;85.70
51719;DHT22;37795;53.236;5.704;2023-10-09T10:37:15;17.50;84.80
51719;DHT22;37795;53.236;5.704;2023-10-09T10:39:51;17.50;84.30
51719;DHT22;37795;53.236;5.704;2023-10-09T10:42:16;17.50;84.40
51719;DHT22;37795;53.236;5.704;2023-10-09T10:45:04;17.50;84.30
51719;DHT22;37795;53.236;5.704;2023-10-09T10:53:53;17.40;85.30
51719;DHT22;37795;53.236;5.704;2023-10-09T10:56:25;17.00;85.20
51719;DHT22;37795;53.236;5.704;2023-10-09T10:59:01;17.00;85.40
51719;DHT22;37795;53.236;5.704;2023-10-09T11:01:33;17.00;85.40
51719;DHT22;37795;53.236;5.704;2023-10-09T11:04:18;17.00;85.60
51719;DHT22;37795;53.236;5.704;2023-10-09T11:07:05;17.00;86.00
51719;DHT22;37795;53.236;5.704;2023-10-09T11:15:09;17.10;86.40
51719;DHT22;37795;53.236;5.704;2023-10-09T11:18:07;17.00;85.90
51719;DHT22;37795;53.236;5.704;2023-10-09T11:20:37;16.90;85.70
51719;DHT22;37795;53.236;5.704;2023-10-09T11:23:04;16.90;85.20
51719;DHT22;37795;53.236;5.704;2023-10-09T11:25:42;16.80;85.00
51719;DHT22;37795;53.236;5.704;2023-10-09T11:28:22;16.90;85.00
51719;DHT22;37795;53.236;5.704;2023-10-09T11:31:10;17.00;85.00
51719;DHT22;37795;53.236;5.704;2023-10-09T11:33:49;17.10;84.90
51719;DHT22;37795;53.236;5.704;2023-10-09T11:36:17;17.20;84.20
51719;DHT22;37795;53.236;5.704;2023-10-09T11:38:57;17.20;84.20
51719;DHT22;37795;53.236;5.704;2023-10-09T11:41:43;17.20;83.80
51719;DHT22;37795;53.236;5.704;2023-10-09T11:44:10;17.20;83.90
51719;DHT22;37795;53.236;5.704;2023-10-09T11:47:00;17.10;84.00
51719;DHT22;37795;53.236;5.704;2023-10-09T11:49:52;17.20;83.60
51719;DHT22;37795;53.236;5.704;2023-10-09T11:52:55;17.30;84.10
51719;DHT22;37795;53.236;5.704;2023-10-09T11:55:39;17.80;83.50
51719;DHT22;37795;53.236;5.704;2023-10-09T11:58:05;18.00;81.60
51719;DHT22;37795;53.236;5.704;2023-10-09T12:00:32;18.30;81.40
51719;DHT22;37795;53.236;5.704;2023-10-09T12:03:10;18.90;80.20
51719;DHT22;37795;53.236;5.704;2023-10-09T12:05:36;19.00;78.50
51719;DHT22;37795;53.236;5.704;2023-10-09T12:08:03;18.70;79.50
51719;DHT22;37795;53.236;5.704;2023-10-09T12:10:34;18.30;79.90
51719;DHT22;37795;53.236;5.704;2023-10-09T12:13:05;18.10;80.10
51719;DHT22;37795;53.236;5.704;2023-10-09T12:15:32;18.00;80.60
51719;DHT22;37795;53.236;5.704;2023-10-09T12:18:07;18.00;81.00
51719;DHT22;37795;53.236;5.704;2023-10-09T12:20:35;18.00;81.40
51719;DHT22;37795;53.236;5.704;2023-10-09T12:23:04;17.90;82.10
51719;DHT22;37795;53.236;5.704;2023-10-09T12:25:32;17.60;82.20
51719;DHT22;37795;53.236;5.704;2023-10-09T12:28:01;17.50;82.10
51719;DHT22;37795;53.236;5.704;2023-10-09T12:30:31;17.40;82.80
51719;DHT22;37795;53.236;5.704;2023-10-09T12:33:03;17.40;82.80
51719;DHT22;37795;53.236;5.704;2023-10-09T12:35:29;17.40;83.30
51719;DHT22;37795;53.236;5.704;2023-10-09T12:37:59;17.40;83.50
51719;DHT22;37795;53.236;5.704;2023-10-09T12:40:26;17.30;83.60
51719;DHT22;37795;53.236;5.704;2023-10-09T12:42:55;17.20;83.00
51719;DHT22;37795;53.236;5.704;2023-10-09T12:45:24;17.20;83.30
51719;DHT22;37795;53.236;5.704;2023-10-09T12:47:58;17.20;83.10
51719;DHT22;37795;53.236;5.704;2023-10-09T12:50:36;17.20;83.50
51719;DHT22;37795;53.236;5.704;2023-10-09T12:53:08;17.30;83.50
51719;DHT22;37795;53.236;5.704;2023-10-09T12:55:37;17.30;83.20
51719;DHT22;37795;53.236;5.704;2023-10-09T12:58:10;17.20;82.80
51719;DHT22;37795;53.236;5.704;2023-10-09T13:00:40;17.40;82.90
51719;DHT22;37795;53.236;5.704;2023-10-09T13:03:29;17.40;82.90
51719;DHT22;37795;53.236;5.704;2023-10-09T13:05:58;17.30;82.70
51719;DHT22;37795;53.236;5.704;2023-10-09T13:08:26;17.30;82.80
51719;DHT22;37795;53.236;5.704;2023-10-09T13:11:08;17.40;82.80
51719;DHT22;37795;53.236;5.704;2023-10-09T13:13:38;17.40;82.70
51719;DHT22;37795;53.236;5.704;2023-10-09T13:16:17;17.30;82.20
51719;DHT22;37795;53.236;5.704;2023-10-09T13:18:56;17.40;82.50
51719;DHT22;37795;53.236;5.704;2023-10-09T13:21:26;17.30;82.50
51719;DHT22;37795;53.236;5.704;2023-10-09T13:23:52;17.40;83.10
51719;DHT22;37795;53.236;5.704;2023-10-09T13:26:21;17.40;82.60
51719;DHT22;37795;53.236;5.704;2023-10-09T13:28:58;17.40;82.50
51719;DHT22;37795;53.236;5.704;2023-10-09T13:31:25;17.30;82.30
51719;DHT22;37795;53.236;5.704;2023-10-09T13:33:52;17.30;82.40
51719;DHT22;37795;53.236;5.704;2023-10-09T13:36:21;17.30;82.80
51719;DHT22;37795;53.236;5.704;2023-10-09T13:41:23;17.20;82.10
51719;DHT22;37795;53.236;5.704;2023-10-09T13:43:55;17.20;82.20
51719;DHT22;37795;53.236;5.704;2023-10-09T13:46:23;17.30;82.10
51719;DHT22;37795;53.236;5.704;2023-10-09T13:48:49;17.20;81.60
51719;DHT22;37795;53.236;5.704;2023-10-09T13:51:18;17.30;81.90
51719;DHT22;37795;53.236;5.704;2023-10-09T13:53:47;17.20;81.70
51719;DHT22;37795;53.236;5.704;2023-10-09T13:56:17;17.20;81.60
51719;DHT22;37795;53.236;5.704;2023-10-09T13:58:48;17.20;82.00
51719;DHT22;37795;53.236;5.704;2023-10-09T14:01:20;17.10;81.70
51719;DHT22;37795;53.236;5.704;2023-10-09T14:04:01;17.20;82.20
51719;DHT22;37795;53.236;5.704;2023-10-09T14:06:28;17.20;81.40
51719;DHT22;37795;53.236;5.704;2023-10-09T14:09:05;17.10;81.10
51719;DHT22;37795;53.236;5.704;2023-10-09T14:11:34;17.10;80.40
51719;DHT22;37795;53.236;5.704;2023-10-09T14:14:05;17.20;80.40
51719;DHT22;37795;53.236;5.704;2023-10-09T14:16:38;17.10;80.60
51719;DHT22;37795;53.236;5.704;2023-10-09T14:19:09;17.20;80.80
51719;DHT22;37795;53.236;5.704;2023-10-09T14:21:38;17.10;80.20
51719;DHT22;37795;53.236;5.704;2023-10-09T14:24:06;17.10;80.50
51719;DHT22;37795;53.236;5.704;2023-10-09T14:26:42;17.00;80.70
51719;DHT22;37795;53.236;5.704;2023-10-09T14:29:08;17.00;80.90
51719;DHT22;37795;53.236;5.704;2023-10-09T14:31:34;17.00;81.40
51719;DHT22;37795;53.236;5.704;2023-10-09T14:34:05;17.00;81.00
51719;DHT22;37795;53.236;5.704;2023-10-09T14:36:31;17.00;81.00
51719;DHT22;37795;53.236;5.704;2023-10-09T14:39:01;17.00;80.40
51719;DHT22;37795;53.236;5.704;2023-10-09T14:41:27;16.90;80.00
51719;DHT22;37795;53.236;5.704;2023-10-09T14:43:54;16.80;78.20
51719;DHT22;37795;53.236;5.704;2023-10-09T14:46:20;16.90;79.10
51719;DHT22;37795;53.236;5.704;2023-10-09T14:48:54;16.90;78.90
51719;DHT22;37795;53.236;5.704;2023-10-09T14:51:24;16.90;79.30
51719;DHT22;37795;53.236;5.704;2023-10-09T14:53:54;17.00;79.40
51719;DHT22;37795;53.236;5.704;2023-10-09T14:56:24;17.00;79.70
51719;DHT22;37795;53.236;5.704;2023-10-09T14:58:58;17.00;79.50
51719;DHT22;37795;53.236;5.704;2023-10-09T15:01:28;17.00;79.60
51719;DHT22;37795;53.236;5.704;2023-10-09T15:03:58;16.90;80.00
51719;DHT22;37795;53.236;5.704;2023-10-09T15:06:29;17.00;80.40
51719;DHT22;37795;53.236;5.704;2023-10-09T15:08:59;16.90;80.00
51719;DHT22;37795;53.236;5.704;2023-10-09T15:11:33;16.90;79.20
51719;DHT22;37795;53.236;5.704;2023-10-09T15:13:59;16.80;78.70
51719;DHT22;37795;53.236;5.704;2023-10-09T15:16:25;16.80;78.40
51719;DHT22;37795;53.236;5.704;2023-10-09T15:18:56;16.80;78.60
51719;DHT22;37795;53.236;5.704;2023-10-09T15:21:28;16.70;78.20
51719;DHT22;37795;53.236;5.704;2023-10-09T15:23:55;16.70;78.50
51719;DHT22;37795;53.236;5.704;2023-10-09T15:26:21;16.70;78.60
51719;DHT22;37795;53.236;5.704;2023-10-09T15:28:52;16.60;78.60
51719;DHT22;37795;53.236;5.704;2023-10-09T15:31:18;16.70;78.90
51719;DHT22;37795;53.236;5.704;2023-10-09T15:33:46;16.60;79.30
51719;DHT22;37795;53.236;5.704;2023-10-09T15:36:16;16.60;79.70
51719;DHT22;37795;53.236;5.704;2023-10-09T15:38:43;16.50;79.80
51719;DHT22;37795;53.236;5.704;2023-10-09T15:41:09;16.50;79.70
51719;DHT22;37795;53.236;5.704;2023-10-09T15:43:35;16.50;80.30
51719;DHT22;37795;53.236;5.704;2023-10-09T15:46:01;16.60;80.70
51719;DHT22;37795;53.236;5.704;2023-10-09T15:48:27;16.50;80.90
51719;DHT22;37795;53.236;5.704;2023-10-09T15:50:53;16.50;80.70
51719;DHT22;37795;53.236;5.704;2023-10-09T15:53:20;16.40;80.90
51719;DHT22;37795;53.236;5.704;2023-10-09T15:55:47;16.40;80.70
51719;DHT22;37795;53.236;5.704;2023-10-09T15:58:17;16.40;80.30
51719;DHT22;37795;53.236;5.704;2023-10-09T16:00:44;16.40;80.30
51719;DHT22;37795;53.236;5.704;2023-10-09T16:03:09;16.30;80.60
51719;DHT22;37795;53.236;5.704;2023-10-09T16:05:36;16.30;80.90
51719;DHT22;37795;53.236;5.704;2023-10-09T16:08:02;16.30;80.50
51719;DHT22;37795;53.236;5.704;2023-10-09T16:10:31;16.20;79.90
51719;DHT22;37795;53.236;5.704;2023-10-09T16:12:57;16.20;80.00
51719;DHT22;37795;53.236;5.704;2023-10-09T16:15:26;16.20;79.20
51719;DHT22;37795;53.236;5.704;2023-10-09T16:17:53;16.20;79.20
51719;DHT22;37795;53.236;5.704;2023-10-09T16:20:27;16.20;79.10
51719;DHT22;37795;53.236;5.704;2023-10-09T16:22:53;16.20;79.60
51719;DHT22;37795;53.236;5.704;2023-10-09T16:25:19;16.20;79.40
51719;DHT22;37795;53.236;5.704;2023-10-09T16:27:49;16.10;79.70
51719;DHT22;37795;53.236;5.704;2023-10-09T16:30:17;16.10;79.40
51719;DHT22;37795;53.236;5.704;2023-10-09T16:32:50;16.10;79.90
51719;DHT22;37795;53.236;5.704;2023-10-09T16:35:16;16.10;79.70
51719;DHT22;37795;53.236;5.704;2023-10-09T16:37:42;16.10;80.10
51719;DHT22;37795;53.236;5.704;2023-10-09T16:40:09;16.10;80.00
51719;DHT22;37795;53.236;5.704;2023-10-09T16:42:38;16.10;80.20
51719;DHT22;37795;53.236;5.704;2023-10-09T16:45:06;16.10;80.60